Huvudsida
METAR-TAF:

METAR-TAF

Flygplatser :

Båtsfjords flygplats

Båtsfjords, Norge

latitud: 70-38N, longitud: 029-44E, höjd: 10 m

Aktuellt väderrapport

Denna rapport gjordes för 10 timmar och 1 minuter sedan, klockan 21:50 UTC
Vind 33 kt från sydväst i byarna ända upp till 45 kt
Temperatur -1°C
Fuktighet 86%
Tryck 970 hPa
Sikt 10 km eller mer
Spridda moln på en höjd av 1500 ft
lågt snödrev

METAR: ENBS 212150Z 23033G45KT 9999 DRSN SCT015 M01/M03 Q0970

Tid: 08:51 (07:51 UTC)


TAF: saknas

Aktuella väderrapporter och prognoser från 4000 flygplatser (METAR- och TAF-rapporter).

De tillgängliga stationerna syns som gula och röda prickar på kartan.

För musen över prickarna för att se namnen på stationerna.

Klicka sedan för att få väderrapporter och prognoser.

För att ändra kartan: Klicka på de gröna knapparna med ett svart kors på för att zooma in; den gröna knappen med ett streck på för att zooma ut; eller på de gröna pilarna för angränsande kartor.


METAR-TAF: